Time;durP1;ratioP1;P1;durP2;ratioP2;P2;SDS_P1;SDS_P2;PMS_P1;PMS_P2;Temp;Humidity;BMP_temperature;BMP_pressure;BME280_temperature;BME280_humidity;BME280_pressure;Samples;Min_cycle;Max_cycle;Signal;HPM_P1;HPM_P2
2021/05/06 00:36:16;;;;;;;2.63;1.00;;;;;;;;;;10493339;28;20255;-69
2021/05/06 00:41:36;;;;;;;3.07;1.07;;;;;;;;;;10480429;28;20232;-69
2021/05/06 00:53:52;;;;;;;4.70;1.17;;;;;;;;;;10482046;28;20203;-69
2021/05/06 00:57:36;;;;;;;4.43;1.30;;;;;;;;;;10473934;28;20694;-69
2021/05/06 01:08:06;;;;;;;1.60;0.90;;;;;;;;;;10493212;28;20663;-69
2021/05/06 01:13:08;;;;;;;2.33;1.30;;;;;;;;;;10488436;28;20220;-69
2021/05/06 01:18:10;;;;;;;3.30;1.23;;;;;;;;;;10490391;28;20215;-68
2021/05/06 01:23:13;;;;;;;1.90;0.90;;;;;;;;;;10486618;28;20255;-69
2021/05/06 01:28:17;;;;;;;2.63;0.90;;;;;;;;;;10485388;28;20220;-69
2021/05/06 01:33:26;;;;;;;4.90;1.70;;;;;;;;;;10488405;28;20523;-70
2021/05/06 01:38:42;;;;;;;2.00;1.10;;;;;;;;;;10489446;28;20332;-69
2021/05/06 01:43:52;;;;;;;3.70;1.40;;;;;;;;;;10485949;28;20638;-69
2021/05/06 01:59:42;;;;;;;2.30;0.60;;;;;;;;;;10480495;28;20192;-69
2021/05/06 02:04:44;;;;;;;3.27;1.30;;;;;;;;;;10480343;28;20239;-69
2021/05/06 02:09:48;;;;;;;4.47;1.27;;;;;;;;;;10494149;28;20216;-69
2021/05/06 02:14:55;;;;;;;3.87;1.30;;;;;;;;;;10494431;28;20594;-69
2021/05/06 02:19:57;;;;;;;4.63;1.40;;;;;;;;;;10494187;28;20191;-69
2021/05/06 02:24:59;;;;;;;3.20;1.30;;;;;;;;;;10497033;28;20318;-69
2021/05/06 02:30:01;;;;;;;4.70;1.00;;;;;;;;;;10503793;28;20192;-69
2021/05/06 02:35:03;;;;;;;1.90;1.03;;;;;;;;;;10500622;28;20713;-70
2021/05/06 02:40:06;;;;;;;1.70;0.87;;;;;;;;;;10495177;28;20257;-68
2021/05/06 02:45:09;;;;;;;2.27;0.90;;;;;;;;;;10495989;28;20240;-69
2021/05/06 02:50:14;;;;;;;3.90;1.10;;;;;;;;;;10484547;28;20211;-69
2021/05/06 02:55:21;;;;;;;3.97;1.27;;;;;;;;;;10485067;28;20608;-69
2021/05/06 03:05:46;;;;;;;0.90;0.47;;;;;;;;;;10492105;28;20600;-68
2021/05/06 03:11:01;;;;;;;1.23;0.63;;;;;;;;;;10485183;28;20355;-69
2021/05/06 03:26:44;;;;;;;5.40;1.03;;;;;;;;;;10493597;28;20192;-69
2021/05/06 03:32:00;;;;;;;4.07;1.27;;;;;;;;;;10490515;28;20238;-69
2021/05/06 03:42:27;;;;;;;5.97;1.30;;;;;;;;;;10476685;28;20224;-69
2021/05/06 03:47:58;;;;;;;2.17;1.20;;;;;;;;;;10484666;28;20216;-69
2021/05/06 04:30:53;;;;;;;4.33;1.77;;;;;;;;;;10483327;28;20338;-69
2021/05/06 04:36:01;;;;;;;4.77;1.60;;;;;;;;;;10494010;28;20207;-70
2021/05/06 04:41:14;;;;;;;2.70;1.50;;;;;;;;;;10491500;28;20204;-70
2021/05/06 04:46:42;;;;;;;5.23;1.53;;;;;;;;;;10493096;28;20215;-70
2021/05/06 05:07:44;;;;;;;2.97;1.33;;;;;;;;;;10460239;28;20261;-69
2021/05/06 05:13:04;;;;;;;4.90;1.90;;;;;;;;;;10465704;28;20711;-69
2021/05/06 05:18:20;;;;;;;3.57;1.70;;;;;;;;;;10461055;28;20231;-70
2021/05/06 05:23:34;;;;;;;5.43;1.80;;;;;;;;;;10463267;28;20243;-70
2021/05/06 05:28:36;;;;;;;6.37;3.03;;;;;;;;;;10480943;28;20211;-70
2021/05/06 05:33:45;;;;;;;5.03;1.83;;;;;;;;;;10479806;28;20326;-69
2021/05/06 05:38:54;;;;;;;7.80;3.17;;;;;;;;;;10487781;28;20277;-68
2021/05/06 05:44:07;;;;;;;6.43;1.97;;;;;;;;;;10484572;28;20228;-68
2021/05/06 05:54:35;;;;;;;3.17;1.33;;;;;;;;;;10482982;28;20240;-69
2021/05/06 05:59:37;;;;;;;5.40;1.47;;;;;;;;;;10484405;28;20199;-69
2021/05/06 06:04:39;;;;;;;3.77;1.20;;;;;;;;;;10494140;28;20917;-69
2021/05/06 06:09:41;;;;;;;2.53;1.20;;;;;;;;;;10490702;28;20629;-69
2021/05/06 06:14:49;;;;;;;4.07;1.63;;;;;;;;;;10488344;28;20289;-69
2021/05/06 06:19:53;;;;;;;4.50;1.60;;;;;;;;;;10503799;28;20197;-70
2021/05/06 06:24:55;;;;;;;4.23;1.30;;;;;;;;;;10499737;28;20670;-69
2021/05/06 06:29:56;;;;;;;4.47;1.27;;;;;;;;;;10474722;28;20212;-68
2021/05/06 06:34:59;;;;;;;3.30;1.30;;;;;;;;;;10490709;28;20248;-69
2021/05/06 06:40:00;;;;;;;5.50;1.40;;;;;;;;;;10492984;28;20192;-69
2021/05/06 06:45:03;;;;;;;4.97;1.40;;;;;;;;;;10487496;28;20557;-69
2021/05/06 06:50:06;;;;;;;2.80;1.00;;;;;;;;;;10495260;28;20199;-68
2021/05/06 06:55:08;;;;;;;4.90;1.43;;;;;;;;;;10477534;28;20305;-69
2021/05/06 07:00:10;;;;;;;4.03;1.23;;;;;;;;;;10482048;28;20286;-69
2021/05/06 07:05:13;;;;;;;3.90;1.10;;;;;;;;;;10467748;28;20216;-67
2021/05/06 07:10:16;;;;;;;3.83;1.00;;;;;;;;;;10485380;28;20192;-68
2021/05/06 07:15:18;;;;;;;9.73;1.80;;;;;;;;;;10489841;28;20215;-71
2021/05/06 07:20:20;;;;;;;6.77;1.63;;;;;;;;;;10492118;28;20214;-69
2021/05/06 07:25:22;;;;;;;6.87;1.40;;;;;;;;;;10487843;28;20305;-69
2021/05/06 07:30:26;;;;;;;5.40;1.60;;;;;;;;;;10490924;28;20242;-68
2021/05/06 07:35:30;;;;;;;7.37;1.60;;;;;;;;;;10485490;28;20223;-68
2021/05/06 07:40:33;;;;;;;3.73;1.40;;;;;;;;;;10488177;28;20197;-69
2021/05/06 07:45:38;;;;;;;3.70;1.40;;;;;;;;;;10481712;28;20216;-69
2021/05/06 07:50:43;;;;;;;4.17;1.50;;;;;;;;;;10486186;28;20212;-70
2021/05/06 07:55:47;;;;;;;3.67;1.90;;;;;;;;;;10486384;28;20304;-71
2021/05/06 08:00:49;;;;;;;5.25;1.80;;;;;;;;;;10487571;28;20208;-71
2021/05/06 08:05:56;;;;;;;3.83;1.52;;;;;;;;;;10478297;28;20636;-68
2021/05/06 08:10:58;;;;;;;5.70;1.75;;;;;;;;;;10509768;27;20682;-69
2021/05/06 08:16:00;;;;;;;6.10;1.63;;;;;;;;;;10483598;28;20220;-70
2021/05/06 08:21:02;;;;;;;4.03;1.50;;;;;;;;;;10480634;28;20699;-68
2021/05/06 08:26:04;;;;;;;5.13;1.30;;;;;;;;;;10485215;28;20216;-68
2021/05/06 08:31:23;;;;;;;4.60;1.50;;;;;;;;;;10476795;28;20196;-68
2021/05/06 08:36:26;;;;;;;7.30;1.70;;;;;;;;;;10476207;28;20299;-68
2021/05/06 08:41:27;;;;;;;5.50;1.93;;;;;;;;;;10475671;28;20228;-68
2021/05/06 08:46:33;;;;;;;5.87;1.50;;;;;;;;;;10462800;28;20212;-68
2021/05/06 08:51:37;;;;;;;2.80;1.15;;;;;;;;;;10473271;28;20219;-68
2021/05/06 08:56:39;;;;;;;5.07;1.80;;;;;;;;;;10470405;28;20237;-69
2021/05/06 09:01:40;;;;;;;5.33;1.63;;;;;;;;;;10472984;28;20184;-68
2021/05/06 09:06:59;;;;;;;4.93;1.60;;;;;;;;;;10468320;28;20655;-68
2021/05/06 09:12:03;;;;;;;5.07;1.83;;;;;;;;;;10475216;28;21035;-69
2021/05/06 09:17:05;;;;;;;2.70;1.43;;;;;;;;;;10468914;28;20227;-69
2021/05/06 09:22:07;;;;;;;4.10;1.60;;;;;;;;;;10471959;28;20215;-69
2021/05/06 09:27:09;;;;;;;4.67;1.50;;;;;;;;;;10477762;28;20596;-68
2021/05/06 09:32:13;;;;;;;3.93;1.50;;;;;;;;;;10483469;28;20294;-69
2021/05/06 09:37:20;;;;;;;8.00;3.03;;;;;;;;;;10480687;28;20216;-69
2021/05/06 09:42:36;;;;;;;6.20;1.53;;;;;;;;;;10486154;28;20212;-69
2021/05/06 09:47:37;;;;;;;4.73;1.47;;;;;;;;;;10482464;28;20184;-70
2021/05/06 09:52:54;;;;;;;3.63;1.33;;;;;;;;;;10483707;28;20318;-70
2021/05/06 09:58:09;;;;;;;3.10;1.63;;;;;;;;;;10483964;28;20286;-70
2021/05/06 10:03:12;;;;;;;3.93;1.57;;;;;;;;;;10495697;28;20605;-70
2021/05/06 10:08:14;;;;;;;5.27;1.60;;;;;;;;;;10510774;28;20192;-70
2021/05/06 10:13:19;;;;;;;4.67;1.13;;;;;;;;;;10472402;28;20278;-70
2021/05/06 10:18:21;;;;;;;4.77;1.60;;;;;;;;;;10482097;28;20216;-69
2021/05/06 10:23:24;;;;;;;6.50;1.77;;;;;;;;;;10483050;28;20331;-69
2021/05/06 10:28:27;;;;;;;2.40;1.17;;;;;;;;;;10483858;28;20206;-69
2021/05/06 10:33:29;;;;;;;2.60;1.00;;;;;;;;;;10486738;28;20303;-69
2021/05/06 10:38:31;;;;;;;4.23;1.37;;;;;;;;;;10492150;28;20208;-68
2021/05/06 10:43:34;;;;;;;1.07;0.77;;;;;;;;;;10485885;28;20224;-69
2021/05/06 10:48:54;;;;;;;3.77;1.27;;;;;;;;;;10494477;28;20189;-69
2021/05/06 10:53:56;;;;;;;3.17;1.10;;;;;;;;;;10489227;28;20208;-69
2021/05/06 10:59:18;;;;;;;1.10;0.73;;;;;;;;;;10495347;28;20234;-69
2021/05/06 11:04:34;;;;;;;6.13;1.77;;;;;;;;;;10477689;28;20367;-68
2021/05/06 11:09:52;;;;;;;4.17;1.30;;;;;;;;;;10481108;28;20199;-68
2021/05/06 11:15:28;;;;;;;4.00;1.23;;;;;;;;;;10489786;28;20775;-69
2021/05/06 11:20:48;;;;;;;2.83;1.13;;;;;;;;;;10486614;28;20566;-69
2021/05/06 11:25:52;;;;;;;3.30;1.30;;;;;;;;;;10483135;28;20289;-69
2021/05/06 11:30:54;;;;;;;1.60;0.90;;;;;;;;;;10484285;28;20200;-68
2021/05/06 11:35:56;;;;;;;5.33;1.50;;;;;;;;;;10484926;28;20200;-70
2021/05/06 11:40:59;;;;;;;1.83;0.70;;;;;;;;;;10480797;28;20335;-70
2021/05/06 11:46:03;;;;;;;5.00;1.37;;;;;;;;;;10484570;28;20268;-70
2021/05/06 11:51:06;;;;;;;3.47;1.23;;;;;;;;;;10486137;28;20702;-70
2021/05/06 11:56:12;;;;;;;2.73;1.23;;;;;;;;;;10483750;28;20262;-71
2021/05/06 12:01:22;;;;;;;2.53;1.00;;;;;;;;;;10490628;28;20196;-69
2021/05/06 12:06:31;;;;;;;2.60;1.40;;;;;;;;;;10482646;28;20216;-70
2021/05/06 12:11:35;;;;;;;3.43;1.60;;;;;;;;;;10482538;28;20527;-68
2021/05/06 12:16:36;;;;;;;3.67;1.20;;;;;;;;;;10486628;28;20230;-71
2021/05/06 12:21:43;;;;;;;4.60;1.57;;;;;;;;;;10483109;28;20518;-70
2021/05/06 12:26:46;;;;;;;4.80;1.57;;;;;;;;;;10484395;28;20188;-69
2021/05/06 12:31:48;;;;;;;3.17;1.27;;;;;;;;;;10490443;28;20197;-69
2021/05/06 12:36:51;;;;;;;3.83;1.50;;;;;;;;;;10483391;28;20208;-70
2021/05/06 12:41:55;;;;;;;3.50;1.30;;;;;;;;;;10484748;28;20599;-70
2021/05/06 12:47:09;;;;;;;3.20;1.23;;;;;;;;;;10475960;28;20189;-72
2021/05/06 12:52:27;;;;;;;4.23;1.20;;;;;;;;;;10467769;28;20235;-69
2021/05/06 12:57:29;;;;;;;2.80;1.30;;;;;;;;;;10508940;28;20228;-69
2021/05/06 13:02:31;;;;;;;3.40;1.50;;;;;;;;;;10471640;28;20224;-68
2021/05/06 13:07:33;;;;;;;3.73;1.60;;;;;;;;;;10479717;28;20177;-68
2021/05/06 13:12:42;;;;;;;3.67;1.40;;;;;;;;;;10476744;28;20251;-69
2021/05/06 13:17:44;;;;;;;5.30;1.60;;;;;;;;;;10482676;28;20274;-67
2021/05/06 13:23:03;;;;;;;5.40;1.50;;;;;;;;;;10489836;28;20594;-68
2021/05/06 13:28:06;;;;;;;5.47;1.43;;;;;;;;;;10494740;28;20276;-67
2021/05/06 13:33:09;;;;;;;5.20;1.70;;;;;;;;;;10486713;28;20248;-69
2021/05/06 13:38:47;;;;;;;5.90;1.60;;;;;;;;;;10482392;28;20218;-68
2021/05/06 13:43:50;;;;;;;9.70;2.50;;;;;;;;;;10482918;28;20212;-69
2021/05/06 13:48:52;;;;;;;5.83;1.80;;;;;;;;;;10482175;28;20564;-68
2021/05/06 13:53:54;;;;;;;5.97;1.80;;;;;;;;;;10479809;28;20628;-69
2021/05/06 13:58:56;;;;;;;6.83;1.80;;;;;;;;;;10484234;28;20211;-70
2021/05/06 14:03:58;;;;;;;4.47;1.50;;;;;;;;;;10490166;28;20699;-70
2021/05/06 14:09:00;;;;;;;5.67;2.70;;;;;;;;;;10500134;28;20200;-70
2021/05/06 14:14:02;;;;;;;5.33;2.40;;;;;;;;;;10486734;28;20278;-70
2021/05/06 14:19:06;;;;;;;4.67;1.90;;;;;;;;;;10484964;28;20316;-70
2021/05/06 14:24:10;;;;;;;6.67;2.10;;;;;;;;;;10471335;28;20225;-70
2021/05/06 14:29:14;;;;;;;3.70;1.70;;;;;;;;;;10469164;28;20205;-70
2021/05/06 14:34:16;;;;;;;7.37;2.40;;;;;;;;;;10483897;28;20270;-70
2021/05/06 14:39:17;;;;;;;5.60;2.17;;;;;;;;;;10497201;28;20242;-69
2021/05/06 14:44:20;;;;;;;4.83;2.27;;;;;;;;;;10500914;28;20262;-69
2021/05/06 14:49:21;;;;;;;15.53;7.13;;;;;;;;;;10489505;28;20208;-69
2021/05/06 14:54:23;;;;;;;7.63;2.23;;;;;;;;;;10489370;28;20216;-69
2021/05/06 14:59:25;;;;;;;5.27;1.93;;;;;;;;;;10486328;28;20264;-70
2021/05/06 15:04:27;;;;;;;4.87;2.37;;;;;;;;;;10497199;28;20220;-69
2021/05/06 15:09:29;;;;;;;4.43;2.20;;;;;;;;;;10465989;28;20683;-69
2021/05/06 15:14:32;;;;;;;7.20;2.33;;;;;;;;;;10478804;28;20554;-69
2021/05/06 15:19:33;;;;;;;6.20;2.50;;;;;;;;;;10483626;28;20208;-69
2021/05/06 15:24:35;;;;;;;5.40;2.23;;;;;;;;;;10495156;28;20664;-69
2021/05/06 15:29:39;;;;;;;5.63;2.57;;;;;;;;;;10481386;28;20215;-67
2021/05/06 15:34:41;;;;;;;4.90;2.50;;;;;;;;;;10487558;28;20342;-68
2021/05/06 15:39:42;;;;;;;8.10;2.60;;;;;;;;;;10445402;28;20283;-69
2021/05/06 15:44:45;;;;;;;7.10;2.60;;;;;;;;;;10451673;28;20212;-70
2021/05/06 15:49:47;;;;;;;8.17;2.67;;;;;;;;;;10474452;28;20274;-68
2021/05/06 15:54:48;;;;;;;6.87;2.80;;;;;;;;;;10460194;28;20249;-69
2021/05/06 15:59:51;;;;;;;7.90;3.67;;;;;;;;;;10446754;28;20734;-69
2021/05/06 16:05:10;;;;;;;7.97;3.00;;;;;;;;;;10449421;28;20223;-68
2021/05/06 16:10:12;;;;;;;7.63;3.37;;;;;;;;;;10437092;28;20188;-69
2021/05/06 16:15:14;;;;;;;6.20;2.60;;;;;;;;;;10438490;28;20223;-68
2021/05/06 16:20:18;;;;;;;6.97;3.17;;;;;;;;;;10439639;28;20667;-68
2021/05/06 16:25:20;;;;;;;4.27;2.40;;;;;;;;;;10463740;28;20225;-69
2021/05/06 16:30:25;;;;;;;7.77;2.90;;;;;;;;;;10486071;28;20212;-69
2021/05/06 16:35:30;;;;;;;8.13;3.10;;;;;;;;;;10484036;28;20224;-68
2021/05/06 16:40:35;;;;;;;10.43;3.30;;;;;;;;;;10471887;28;20273;-67
2021/05/06 16:45:40;;;;;;;8.73;3.53;;;;;;;;;;10481241;28;20580;-66
2021/05/06 16:50:43;;;;;;;8.77;3.53;;;;;;;;;;10477048;28;20199;-68
2021/05/06 16:55:46;;;;;;;9.80;3.50;;;;;;;;;;10482560;28;20213;-65
2021/05/06 17:00:48;;;;;;;7.00;3.00;;;;;;;;;;10485594;28;20216;-68
2021/05/06 17:05:49;;;;;;;7.33;3.47;;;;;;;;;;10485527;28;20259;-70
2021/05/06 17:10:51;;;;;;;8.63;3.43;;;;;;;;;;10482633;28;20196;-68
2021/05/06 17:15:54;;;;;;;7.87;3.83;;;;;;;;;;10485576;28;20236;-68
2021/05/06 17:20:55;;;;;;;10.20;3.60;;;;;;;;;;10480064;28;20286;-69
2021/05/06 17:25:57;;;;;;;9.43;4.10;;;;;;;;;;10479728;28;20231;-67
2021/05/06 17:30:59;;;;;;;9.23;4.63;;;;;;;;;;10482169;28;20535;-68
2021/05/06 17:36:01;;;;;;;8.03;4.00;;;;;;;;;;10492535;28;20254;-67
2021/05/06 17:41:03;;;;;;;11.97;4.63;;;;;;;;;;10489349;28;20196;-69
2021/05/06 17:46:05;;;;;;;8.83;3.97;;;;;;;;;;10487792;28;20237;-70
2021/05/06 17:51:07;;;;;;;7.20;3.90;;;;;;;;;;10491346;28;20193;-70
2021/05/06 17:56:09;;;;;;;8.33;3.50;;;;;;;;;;10493870;28;20220;-68
2021/05/06 18:01:17;;;;;;;10.07;4.33;;;;;;;;;;10490057;28;20793;-70
2021/05/06 18:06:19;;;;;;;10.67;5.73;;;;;;;;;;10486524;28;20224;-70
2021/05/06 18:11:33;;;;;;;11.67;4.80;;;;;;;;;;10490705;28;20212;-72
2021/05/06 18:16:35;;;;;;;10.73;4.33;;;;;;;;;;10486733;28;20319;-69
2021/05/06 18:21:38;;;;;;;11.50;5.17;;;;;;;;;;10483103;28;20196;-69
2021/05/06 18:26:40;;;;;;;11.00;4.73;;;;;;;;;;10488040;28;20264;-70
2021/05/06 18:31:44;;;;;;;9.77;4.40;;;;;;;;;;10488940;28;20687;-71
2021/05/06 18:36:47;;;;;;;9.53;4.87;;;;;;;;;;10488048;28;20278;-69
2021/05/06 18:41:48;;;;;;;6.77;2.43;;;;;;;;;;10485986;28;20619;-69
2021/05/06 18:47:01;;;;;;;8.93;4.47;;;;;;;;;;10489478;28;20189;-68
2021/05/06 18:52:04;;;;;;;9.33;4.43;;;;;;;;;;10485012;28;20295;-70
2021/05/06 18:57:06;;;;;;;5.57;2.50;;;;;;;;;;10486138;28;20216;-69
2021/05/06 19:02:08;;;;;;;5.40;1.80;;;;;;;;;;10487032;28;20215;-69
2021/05/06 19:07:10;;;;;;;5.83;2.67;;;;;;;;;;10486839;28;20630;-69
2021/05/06 19:12:12;;;;;;;6.97;2.93;;;;;;;;;;10486292;28;20232;-70
2021/05/06 19:17:14;;;;;;;10.00;4.40;;;;;;;;;;10486541;28;20285;-70
2021/05/06 19:22:16;;;;;;;9.40;4.30;;;;;;;;;;10489282;28;20281;-69
2021/05/06 19:27:18;;;;;;;7.93;3.63;;;;;;;;;;10485371;28;20548;-70
2021/05/06 19:32:21;;;;;;;8.43;3.57;;;;;;;;;;10489598;28;20250;-71
2021/05/06 19:37:24;;;;;;;10.80;4.67;;;;;;;;;;10491599;28;20288;-69
2021/05/06 19:42:29;;;;;;;10.43;4.77;;;;;;;;;;10486803;28;20208;-69
2021/05/06 19:47:31;;;;;;;2.90;1.67;;;;;;;;;;10484233;28;20191;-69
2021/05/06 19:52:33;;;;;;;8.90;3.90;;;;;;;;;;10488924;28;20517;-71
2021/05/06 19:57:35;;;;;;;4.27;1.80;;;;;;;;;;10483414;28;20224;-69
2021/05/06 20:02:37;;;;;;;8.97;3.87;;;;;;;;;;10489902;28;20295;-69
2021/05/06 20:07:40;;;;;;;9.67;3.93;;;;;;;;;;10486066;28;20252;-69
2021/05/06 20:12:41;;;;;;;9.30;3.40;;;;;;;;;;10485046;28;20285;-70
2021/05/06 20:17:45;;;;;;;8.47;4.00;;;;;;;;;;10515612;28;20247;-69
2021/05/06 20:22:47;;;;;;;8.70;4.20;;;;;;;;;;10483883;28;20223;-69
2021/05/06 20:27:49;;;;;;;10.30;4.03;;;;;;;;;;10480381;28;20263;-69
2021/05/06 20:32:51;;;;;;;7.07;3.40;;;;;;;;;;10486753;28;20212;-70
2021/05/06 20:37:53;;;;;;;8.60;3.23;;;;;;;;;;10485911;28;20234;-69
2021/05/06 20:42:55;;;;;;;6.93;2.43;;;;;;;;;;10480365;28;20345;-69
2021/05/06 20:47:57;;;;;;;6.73;2.30;;;;;;;;;;10486205;28;20216;-69
2021/05/06 20:52:59;;;;;;;5.90;2.50;;;;;;;;;;10482151;28;20323;-68
2021/05/06 20:58:01;;;;;;;6.53;2.77;;;;;;;;;;10442300;28;20704;-68
2021/05/06 21:03:04;;;;;;;6.13;2.70;;;;;;;;;;10439906;28;20221;-70
2021/05/06 21:08:07;;;;;;;7.97;3.00;;;;;;;;;;10434618;28;20668;-70
2021/05/06 21:13:10;;;;;;;2.13;0.97;;;;;;;;;;10446737;28;20326;-68
2021/05/06 21:18:13;;;;;;;5.70;2.30;;;;;;;;;;10436111;28;20220;-68
2021/05/06 21:23:15;;;;;;;4.83;2.00;;;;;;;;;;10433652;28;20224;-68
2021/05/06 21:28:21;;;;;;;3.43;1.50;;;;;;;;;;10436626;28;20921;-70
2021/05/06 21:33:23;;;;;;;2.97;1.50;;;;;;;;;;10436289;28;20212;-69
2021/05/06 21:38:25;;;;;;;2.10;1.23;;;;;;;;;;10438080;28;20276;-69
2021/05/06 21:43:27;;;;;;;1.53;0.87;;;;;;;;;;10434863;28;20314;-69
2021/05/06 21:48:29;;;;;;;1.07;0.70;;;;;;;;;;10436559;28;20207;-68
2021/05/06 21:53:31;;;;;;;1.27;0.60;;;;;;;;;;10465839;28;20628;-69
2021/05/06 21:58:33;;;;;;;0.30;0.30;;;;;;;;;;10440515;28;20239;-69
2021/05/06 22:03:35;;;;;;;1.60;0.73;;;;;;;;;;10465917;28;20352;-70
2021/05/06 22:08:37;;;;;;;2.20;0.50;;;;;;;;;;10483484;28;20233;-69
2021/05/06 22:13:39;;;;;;;2.27;0.60;;;;;;;;;;10478153;28;20213;-69
2021/05/06 22:18:45;;;;;;;0.37;0.33;;;;;;;;;;10481016;28;20349;-68
2021/05/06 22:23:47;;;;;;;0.73;0.60;;;;;;;;;;10475956;28;20598;-69
2021/05/06 22:28:48;;;;;;;0.77;0.47;;;;;;;;;;10484961;28;20192;-69
2021/05/06 22:33:51;;;;;;;1.03;0.47;;;;;;;;;;10491490;28;20258;-70
2021/05/06 22:38:53;;;;;;;2.13;0.70;;;;;;;;;;10485214;28;20216;-69
2021/05/06 22:43:55;;;;;;;0.60;0.47;;;;;;;;;;10489691;28;20216;-69
2021/05/06 22:48:57;;;;;;;2.83;0.70;;;;;;;;;;10487077;28;20287;-68
2021/05/06 22:53:59;;;;;;;0.50;0.50;;;;;;;;;;10484013;28;20366;-69
2021/05/06 22:59:00;;;;;;;1.30;0.60;;;;;;;;;;10488594;28;20213;-68
2021/05/06 23:04:03;;;;;;;2.23;0.40;;;;;;;;;;10488233;28;20431;-68
2021/05/06 23:09:08;;;;;;;1.33;0.60;;;;;;;;;;10485352;28;20598;-69
2021/05/06 23:14:10;;;;;;;1.90;0.40;;;;;;;;;;10492815;28;20240;-68
2021/05/06 23:19:12;;;;;;;0.53;0.50;;;;;;;;;;10487048;28;20251;-70
2021/05/06 23:24:16;;;;;;;1.43;0.60;;;;;;;;;;10491945;28;20568;-71
2021/05/06 23:29:17;;;;;;;1.03;0.57;;;;;;;;;;10485710;28;20210;-71
2021/05/06 23:34:20;;;;;;;2.40;0.70;;;;;;;;;;10484821;28;20232;-69
2021/05/06 23:39:21;;;;;;;2.83;0.60;;;;;;;;;;10488616;28;20215;-69
2021/05/06 23:44:23;;;;;;;3.60;1.03;;;;;;;;;;10480813;28;20756;-68
2021/05/06 23:49:25;;;;;;;3.63;0.97;;;;;;;;;;10487232;28;20196;-70
2021/05/06 23:54:27;;;;;;;1.47;0.80;;;;;;;;;;10481651;28;20246;-69
2021/05/06 23:59:29;;;;;;;2.40;0.80;;;;;;;;;;10479639;28;20276;-68
